createdAt,value
2023-05-09T00:02:38.340Z,13.90
2023-05-09T00:06:39.856Z,13.80
2023-05-09T00:10:41.691Z,13.84
2023-05-09T00:14:45.339Z,13.92
2023-05-09T00:18:47.081Z,13.66
2023-05-09T00:22:48.524Z,13.28
2023-05-09T00:26:49.981Z,13.49
2023-05-09T00:30:51.595Z,13.32
2023-05-09T00:34:53.134Z,13.46
2023-05-09T00:38:54.568Z,13.31
2023-05-09T00:42:58.264Z,13.32
2023-05-09T00:46:59.779Z,13.51
2023-05-09T00:51:01.537Z,13.26
2023-05-09T00:55:04.354Z,13.51
2023-05-09T00:59:09.023Z,13.12
2023-05-09T01:03:10.790Z,12.97
2023-05-09T01:07:35.110Z,12.81
2023-05-09T01:11:59.471Z,12.51
2023-05-09T01:16:39.809Z,12.54
2023-05-09T01:21:08.677Z,12.47
2023-05-09T01:25:44.917Z,12.52
2023-05-09T01:29:48.665Z,12.39
2023-05-09T01:34:02.494Z,12.48
2023-05-09T01:38:11.726Z,12.38
2023-05-09T01:42:14.684Z,12.30
2023-05-09T01:46:18.118Z,12.21
2023-05-09T01:50:22.505Z,12.17
2023-05-09T01:54:26.159Z,12.12
2023-05-09T01:58:28.541Z,12.42
2023-05-09T02:02:30.329Z,12.28
2023-05-09T02:06:32.558Z,12.20
2023-05-09T02:10:35.681Z,12.27
2023-05-09T02:14:38.821Z,12.36
2023-05-09T02:18:40.227Z,12.34
2023-05-09T02:22:43.414Z,12.21
2023-05-09T02:26:45.345Z,12.36
2023-05-09T02:30:49.754Z,12.10
2023-05-09T02:34:53.588Z,12.07
2023-05-09T02:38:55.434Z,12.22
2023-05-09T02:42:57.224Z,12.04
2023-05-09T02:46:58.827Z,12.03
2023-05-09T02:51:00.330Z,12.02
2023-05-09T02:55:03.632Z,12.17
2023-05-09T02:59:07.650Z,11.84
2023-05-09T03:03:09.345Z,11.98
2023-05-09T03:07:10.978Z,12.02
2023-05-09T03:11:12.549Z,11.88
2023-05-09T03:15:14.275Z,11.61
2023-05-09T03:19:17.666Z,11.83
2023-05-09T03:23:19.141Z,11.98
2023-05-09T03:27:20.672Z,11.71
2023-05-09T03:31:24.047Z,11.87
2023-05-09T03:35:25.694Z,11.78
2023-05-09T03:39:28.966Z,11.94
2023-05-09T03:43:32.383Z,12.22
2023-05-09T03:47:33.929Z,11.99
2023-05-09T03:51:36.969Z,12.10
2023-05-09T03:55:43.560Z,12.41
2023-05-09T03:59:47.654Z,12.54
2023-05-09T04:03:52.060Z,12.15
2023-05-09T04:07:54.690Z,12.23
2023-05-09T04:11:56.400Z,12.36
2023-05-09T04:15:57.954Z,12.89
2023-05-09T04:20:01.168Z,14.95
2023-05-09T04:24:02.955Z,16.86
2023-05-09T04:28:11.045Z,16.39
2023-05-09T04:32:12.959Z,17.65
2023-05-09T04:36:14.653Z,18.71
2023-05-09T04:40:16.825Z,19.19
2023-05-09T04:44:25.655Z,18.84
2023-05-09T04:48:27.537Z,18.51
2023-05-09T04:52:29.428Z,19.26
2023-05-09T04:56:31.451Z,19.03
2023-05-09T05:00:35.670Z,19.50
2023-05-09T05:04:37.597Z,19.44
2023-05-09T05:08:39.513Z,19.65
2023-05-09T05:12:41.100Z,19.55
2023-05-09T05:16:45.573Z,18.91
2023-05-09T05:20:47.266Z,16.91
2023-05-09T05:24:48.792Z,16.04
2023-05-09T05:28:55.249Z,15.80
2023-05-09T05:32:56.973Z,16.47
2023-05-09T05:37:00.877Z,16.15
2023-05-09T05:41:02.525Z,15.45
2023-05-09T05:45:05.735Z,15.44
2023-05-09T05:49:10.845Z,15.37
2023-05-09T05:53:12.565Z,15.50
2023-05-09T05:57:14.944Z,15.63
2023-05-09T06:01:17.077Z,15.93
2023-05-09T06:05:18.704Z,16.64
2023-05-09T06:09:20.329Z,16.13
2023-05-09T06:13:21.952Z,16.40
2023-05-09T06:17:28.023Z,16.10
2023-05-09T06:21:30.643Z,16.36
2023-05-09T06:25:32.077Z,17.06
2023-05-09T06:29:33.594Z,17.14
2023-05-09T06:33:35.132Z,17.59
2023-05-09T06:37:36.729Z,17.54
2023-05-09T06:41:38.216Z,17.32
2023-05-09T06:45:39.760Z,16.90
2023-05-09T06:49:41.214Z,17.18
2023-05-09T06:53:42.734Z,17.99
2023-05-09T06:57:44.322Z,18.14
2023-05-09T07:01:46.101Z,17.82
2023-05-09T07:05:47.817Z,17.73
2023-05-09T07:09:52.804Z,17.86
2023-05-09T07:13:56.569Z,18.76
2023-05-09T07:17:58.116Z,18.35
2023-05-09T07:21:59.575Z,18.23
2023-05-09T07:26:01.402Z,18.85
2023-05-09T07:30:07.539Z,19.60
2023-05-09T07:34:09.068Z,19.51
2023-05-09T07:38:11.014Z,19.66
2023-05-09T07:42:12.485Z,19.40
2023-05-09T07:46:14.019Z,19.66
2023-05-09T07:50:16.934Z,19.46
2023-05-09T07:54:18.556Z,19.70
2023-05-09T07:58:20.269Z,19.53
2023-05-09T08:02:21.941Z,19.88
2023-05-09T08:06:23.446Z,19.54
2023-05-09T08:10:26.636Z,19.56
2023-05-09T08:14:28.245Z,20.13
2023-05-09T08:18:29.809Z,19.76
2023-05-09T08:22:31.338Z,20.09
2023-05-09T08:26:32.761Z,20.50
2023-05-09T08:30:34.266Z,20.39
2023-05-09T08:34:36.423Z,20.93
2023-05-09T08:38:40.384Z,20.85
2023-05-09T08:42:44.196Z,20.75
2023-05-09T08:46:48.767Z,21.37
2023-05-09T08:50:50.931Z,21.40
2023-05-09T08:54:53.349Z,21.48
2023-05-09T08:58:55.580Z,20.70
2023-05-09T09:03:00.660Z,21.27
2023-05-09T09:07:05.743Z,20.87
2023-05-09T09:11:08.042Z,21.52
2023-05-09T09:15:15.796Z,20.96
2023-05-09T09:19:17.933Z,21.54
2023-05-09T09:23:23.948Z,21.78
2023-05-09T09:27:25.420Z,21.04
2023-05-09T09:31:31.456Z,21.73
2023-05-09T09:35:39.509Z,21.83
2023-05-09T09:39:53.618Z,21.60
2023-05-09T09:43:58.692Z,21.67
2023-05-09T09:48:07.021Z,21.64
2023-05-09T09:52:08.476Z,21.77
2023-05-09T09:56:11.068Z,22.13
2023-05-09T10:00:35.386Z,22.31
2023-05-09T10:04:38.713Z,22.20
2023-05-09T10:08:41.090Z,22.07
2023-05-09T10:12:44.182Z,22.57
2023-05-09T10:16:48.284Z,22.63
2023-05-09T10:20:50.156Z,22.41
2023-05-09T10:25:01.509Z,22.35
2023-05-09T10:29:10.654Z,22.85
2023-05-09T10:33:16.457Z,22.72
2023-05-09T10:37:18.401Z,23.32
2023-05-09T10:41:21.899Z,22.55
2023-05-09T10:45:23.766Z,22.99
2023-05-09T10:49:25.667Z,22.90
2023-05-09T10:53:44.792Z,22.66
2023-05-09T10:57:53.773Z,22.21
2023-05-09T11:02:00.963Z,22.68
2023-05-09T11:06:02.634Z,23.25
2023-05-09T11:10:08.284Z,23.50
2023-05-09T11:14:09.887Z,24.02
2023-05-09T11:18:11.531Z,23.33
2023-05-09T11:22:21.217Z,23.23
2023-05-09T11:26:28.366Z,23.80
2023-05-09T11:30:40.660Z,23.23
2023-05-09T11:34:45.652Z,23.16
2023-05-09T11:38:47.689Z,23.65
2023-05-09T11:42:57.988Z,24.16
2023-05-09T11:47:01.510Z,23.72
2023-05-09T11:51:03.817Z,24.04
2023-05-09T11:55:12.502Z,23.53
2023-05-09T11:59:15.745Z,23.70
2023-05-09T12:03:18.000Z,23.51
2023-05-09T12:07:20.569Z,24.06
2023-05-09T12:11:22.005Z,23.74
2023-05-09T12:15:24.177Z,23.43
2023-05-09T12:19:26.567Z,23.76
2023-05-09T12:23:28.015Z,24.05
2023-05-09T12:27:29.904Z,23.41
2023-05-09T12:31:31.783Z,23.75
2023-05-09T12:35:35.265Z,24.84
2023-05-09T12:39:37.088Z,25.07
2023-05-09T12:44:08.363Z,24.29
2023-05-09T12:48:11.776Z,23.71
2023-05-09T12:52:20.443Z,23.64
2023-05-09T12:56:23.475Z,23.68
2023-05-09T13:00:25.397Z,23.47
2023-05-09T13:04:28.558Z,23.92
2023-05-09T13:08:30.647Z,24.92
2023-05-09T13:12:32.319Z,24.68
2023-05-09T13:16:34.508Z,24.60
2023-05-09T13:20:36.011Z,24.28
2023-05-09T13:24:37.486Z,23.71
2023-05-09T13:28:39.014Z,24.22
2023-05-09T13:32:40.477Z,24.14
2023-05-09T13:36:41.995Z,23.90
2023-05-09T13:40:43.472Z,24.29
2023-05-09T13:44:44.913Z,24.31
2023-05-09T13:48:47.676Z,24.11
2023-05-09T13:52:49.961Z,24.00
2023-05-09T13:56:51.633Z,24.33
2023-05-09T14:00:53.295Z,24.85
2023-05-09T14:04:54.961Z,24.68
2023-05-09T14:08:57.040Z,24.72
2023-05-09T14:12:58.684Z,24.45
2023-05-09T14:17:00.418Z,24.56
2023-05-09T14:21:01.984Z,24.30
2023-05-09T14:25:03.558Z,24.39
2023-05-09T14:29:05.855Z,24.10
2023-05-09T14:33:07.497Z,24.70
2023-05-09T14:37:13.780Z,25.28
2023-05-09T14:41:15.316Z,25.04
2023-05-09T14:45:16.968Z,24.90
2023-05-09T14:49:18.401Z,24.66
2023-05-09T14:53:19.899Z,24.22
2023-05-09T14:57:22.389Z,25.21
2023-05-09T15:01:24.161Z,24.69
2023-05-09T15:05:26.281Z,25.31
2023-05-09T15:09:28.006Z,24.05
2023-05-09T15:13:29.569Z,23.98
2023-05-09T15:17:31.097Z,24.51
2023-05-09T15:21:33.547Z,24.03
2023-05-09T15:25:35.031Z,23.83
2023-05-09T15:29:36.637Z,24.74
2023-05-09T15:33:38.256Z,24.47
2023-05-09T15:37:40.395Z,24.44
2023-05-09T15:41:41.950Z,24.10
2023-05-09T15:45:46.778Z,25.01
2023-05-09T15:49:48.372Z,24.84
2023-05-09T15:53:49.945Z,24.86
2023-05-09T15:57:52.477Z,24.12
2023-05-09T16:01:55.502Z,23.93
2023-05-09T16:05:57.467Z,24.28
2023-05-09T16:09:58.947Z,24.29
2023-05-09T16:14:00.424Z,24.41
2023-05-09T16:18:02.018Z,23.93
2023-05-09T16:22:03.630Z,24.56
2023-05-09T16:26:06.117Z,24.46
2023-05-09T16:30:08.215Z,24.67
2023-05-09T16:34:09.688Z,24.41
2023-05-09T16:38:12.879Z,24.33
2023-05-09T16:42:14.358Z,24.06
2023-05-09T16:46:16.176Z,24.99
2023-05-09T16:50:17.874Z,24.94
2023-05-09T16:54:19.620Z,24.99
2023-05-09T16:58:21.165Z,25.12
2023-05-09T17:02:23.266Z,24.84
2023-05-09T17:06:24.819Z,25.35
2023-05-09T17:10:26.405Z,25.02
2023-05-09T17:14:27.887Z,23.50
2023-05-09T17:18:37.744Z,23.13
2023-05-09T17:22:39.671Z,23.22
2023-05-09T17:26:41.174Z,23.04
2023-05-09T17:30:42.826Z,22.19
2023-05-09T17:34:44.271Z,22.26
2023-05-09T17:38:45.933Z,21.84
2023-05-09T17:42:47.823Z,21.45
2023-05-09T17:46:49.541Z,21.42
2023-05-09T17:50:51.150Z,21.00
2023-05-09T17:54:53.033Z,21.02
2023-05-09T17:58:54.515Z,21.10
2023-05-09T18:02:58.095Z,20.70
2023-05-09T18:07:00.188Z,20.46
2023-05-09T18:11:01.691Z,21.24
2023-05-09T18:15:03.545Z,21.01
2023-05-09T18:19:05.462Z,20.50
2023-05-09T18:23:07.061Z,20.12
2023-05-09T18:27:08.584Z,19.84
2023-05-09T18:31:11.663Z,20.03
2023-05-09T18:35:13.315Z,20.02
2023-05-09T18:39:15.035Z,19.76
2023-05-09T18:43:16.917Z,19.82
2023-05-09T18:47:18.652Z,19.54
2023-05-09T18:51:20.211Z,19.35
2023-05-09T18:55:22.340Z,19.12
2023-05-09T18:59:24.299Z,18.87
2023-05-09T19:03:27.109Z,18.73
2023-05-09T19:07:29.248Z,18.55
2023-05-09T19:11:30.767Z,18.20
2023-05-09T19:15:32.208Z,18.03
2023-05-09T19:19:33.642Z,17.91
2023-05-09T19:23:35.112Z,17.82
2023-05-09T19:27:36.546Z,18.08
2023-05-09T19:31:37.991Z,17.74
2023-05-09T19:35:41.285Z,17.93
2023-05-09T19:39:42.760Z,17.81
2023-05-09T19:43:44.315Z,17.63
2023-05-09T19:47:45.896Z,17.60
2023-05-09T19:51:47.440Z,17.48
2023-05-09T19:55:48.885Z,17.43
2023-05-09T19:59:50.995Z,17.55
2023-05-09T20:03:52.851Z,17.46
2023-05-09T20:07:54.439Z,17.42
2023-05-09T20:11:55.943Z,17.33
2023-05-09T20:15:58.956Z,17.27
2023-05-09T20:20:00.642Z,17.38
2023-05-09T20:24:02.470Z,17.15
2023-05-09T20:28:03.938Z,17.29
2023-05-09T20:32:05.747Z,16.98
2023-05-09T20:36:09.426Z,17.29
2023-05-09T20:40:11.147Z,16.82
2023-05-09T20:44:13.850Z,17.02
2023-05-09T20:48:15.304Z,17.14
2023-05-09T20:52:16.761Z,16.57
2023-05-09T20:56:19.350Z,17.06
2023-05-09T21:00:20.899Z,16.89
2023-05-09T21:04:23.127Z,17.08
2023-05-09T21:08:25.446Z,16.79
2023-05-09T21:12:26.912Z,16.97
2023-05-09T21:16:28.865Z,16.60
2023-05-09T21:20:30.812Z,16.82
2023-05-09T21:24:32.395Z,16.55
2023-05-09T21:28:34.055Z,16.01
2023-05-09T21:32:35.663Z,15.90
2023-05-09T21:36:38.499Z,15.94
2023-05-09T21:40:41.127Z,16.55
2023-05-09T21:44:42.704Z,15.58
2023-05-09T21:48:44.137Z,16.34
2023-05-09T21:52:45.808Z,16.22
2023-05-09T21:56:47.384Z,16.30
2023-05-09T22:00:48.823Z,15.71
2023-05-09T22:04:50.434Z,15.77
2023-05-09T22:08:52.003Z,15.83
2023-05-09T22:12:53.603Z,15.67
2023-05-09T22:16:55.065Z,15.87
2023-05-09T22:20:56.512Z,15.47
2023-05-09T22:24:58.036Z,15.61
2023-05-09T22:28:59.520Z,15.72
2023-05-09T22:33:01.019Z,15.63
2023-05-09T22:37:02.714Z,15.63
2023-05-09T22:41:04.176Z,15.65
2023-05-09T22:45:06.224Z,15.55
2023-05-09T22:49:07.666Z,15.11
2023-05-09T22:53:09.231Z,15.32
2023-05-09T22:57:11.353Z,15.34
2023-05-09T23:01:12.884Z,15.30
2023-05-09T23:05:14.542Z,15.11
2023-05-09T23:09:16.019Z,15.03
2023-05-09T23:13:17.610Z,15.22
2023-05-09T23:17:19.064Z,15.23
2023-05-09T23:21:20.521Z,14.84
2023-05-09T23:25:22.094Z,14.82
2023-05-09T23:29:23.604Z,15.22
2023-05-09T23:33:25.072Z,15.05
2023-05-09T23:37:26.683Z,15.08
2023-05-09T23:41:28.269Z,14.81
2023-05-09T23:45:29.764Z,14.80
2023-05-09T23:49:31.443Z,15.04
2023-05-09T23:53:35.632Z,15.11
2023-05-09T23:57:37.094Z,14.97
